createdAt,value
2023-03-11T00:00:40.558Z,100833.72
2023-03-11T00:03:09.114Z,100830.22
2023-03-11T00:05:38.358Z,100847.06
2023-03-11T00:08:06.620Z,100836.75
2023-03-11T00:10:42.338Z,100837.44
2023-03-11T00:13:11.561Z,100847.63
2023-03-11T00:15:38.806Z,100851.22
2023-03-11T00:18:06.074Z,100856.53
2023-03-11T00:20:35.690Z,100860.03
2023-03-11T00:23:03.502Z,100854.22
2023-03-11T00:25:31.762Z,100856.06
2023-03-11T00:27:58.973Z,100866.47
2023-03-11T00:30:25.751Z,100866.47
2023-03-11T00:32:54.171Z,100868.22
2023-03-11T00:35:24.338Z,100871.56
2023-03-11T00:37:54.805Z,100863.94
2023-03-11T00:40:23.883Z,100879.47
2023-03-11T00:42:50.334Z,100887.94
2023-03-11T00:45:17.134Z,100894.66
2023-03-11T00:47:43.562Z,100899.66
2023-03-11T00:50:14.549Z,100895.69
2023-03-11T00:52:40.984Z,100899.75
2023-03-11T00:55:07.811Z,100894.66
2023-03-11T00:57:34.259Z,100907.31
2023-03-11T01:00:00.708Z,100903.84
2023-03-11T01:02:27.149Z,100907.19
2023-03-11T01:04:55.601Z,100904.53
2023-03-11T01:07:22.659Z,100909.44
2023-03-11T01:09:49.131Z,100900.66
2023-03-11T01:12:15.581Z,100916.56
2023-03-11T01:14:42.029Z,100907.16
2023-03-11T01:17:08.462Z,100907.25
2023-03-11T01:19:34.892Z,100915.84
2023-03-11T01:22:01.334Z,100917.56
2023-03-11T01:24:27.774Z,100922.47
2023-03-11T01:26:54.303Z,100919.00
2023-03-11T01:29:20.749Z,100926.34
2023-03-11T01:31:47.176Z,100926.13
2023-03-11T01:34:13.666Z,100928.47
2023-03-11T01:36:40.042Z,100928.09
2023-03-11T01:39:06.690Z,100934.16
2023-03-11T01:41:33.222Z,100937.50
2023-03-11T01:43:59.714Z,100925.56
2023-03-11T01:46:36.479Z,100932.28
2023-03-11T01:49:05.586Z,100931.59
2023-03-11T01:51:37.063Z,100934.97
2023-03-11T01:54:07.210Z,100927.28
2023-03-11T01:56:35.460Z,100932.19
2023-03-11T01:59:02.457Z,100937.28
2023-03-11T02:01:29.564Z,100930.53
2023-03-11T02:03:57.739Z,100936.50
2023-03-11T02:06:25.743Z,100945.06
2023-03-11T02:08:52.591Z,100938.22
2023-03-11T02:11:28.705Z,100950.97
2023-03-11T02:13:59.380Z,100938.94
2023-03-11T02:16:26.007Z,100940.44
2023-03-11T02:18:52.700Z,100946.38
2023-03-11T02:21:31.367Z,100937.06
2023-03-11T02:24:19.648Z,100948.09
2023-03-11T02:27:05.504Z,100954.94
2023-03-11T02:29:33.584Z,100957.50
2023-03-11T02:32:04.837Z,100956.69
2023-03-11T02:34:33.671Z,100958.31
2023-03-11T02:37:01.212Z,100959.16
2023-03-11T02:39:31.034Z,100955.66
2023-03-11T02:41:58.513Z,100953.00
2023-03-11T02:44:25.277Z,100965.88
2023-03-11T02:46:53.253Z,100960.16
2023-03-11T02:49:21.596Z,100955.28
2023-03-11T02:51:48.049Z,100955.47
2023-03-11T02:54:14.490Z,100955.09
2023-03-11T02:56:40.994Z,100961.22
2023-03-11T02:59:07.484Z,100954.25
2023-03-11T03:01:33.981Z,100963.22
2023-03-11T03:04:00.612Z,100961.22
2023-03-11T03:06:28.619Z,100970.00
2023-03-11T03:08:55.526Z,100973.81
2023-03-11T03:11:22.013Z,100978.50
2023-03-11T03:13:48.494Z,100971.38
2023-03-11T03:16:14.950Z,100976.91
2023-03-11T03:18:41.379Z,100976.28
2023-03-11T03:21:07.809Z,100991.78
2023-03-11T03:23:35.383Z,100986.19
2023-03-11T03:26:02.122Z,100987.31
2023-03-11T03:28:28.633Z,100991.78
2023-03-11T03:30:55.069Z,100992.91
2023-03-11T03:33:21.738Z,100994.75
2023-03-11T03:35:48.172Z,100996.50
2023-03-11T03:38:14.871Z,101005.16
2023-03-11T03:40:46.582Z,101002.69
2023-03-11T03:43:12.992Z,101014.94
2023-03-11T03:45:39.511Z,101013.28
2023-03-11T03:48:07.028Z,101027.88
2023-03-11T03:50:33.813Z,101022.97
2023-03-11T03:53:00.209Z,101031.31
2023-03-11T03:55:26.649Z,101027.88
2023-03-11T03:57:53.110Z,101030.44
2023-03-11T04:00:19.843Z,101040.31
2023-03-11T04:02:46.271Z,101037.78
2023-03-11T04:05:13.169Z,101035.03
2023-03-11T04:07:39.675Z,101044.28
2023-03-11T04:10:06.938Z,101044.19
2023-03-11T04:12:33.518Z,101054.28
2023-03-11T04:14:59.989Z,101048.28
2023-03-11T04:17:26.601Z,101052.78
2023-03-11T04:19:53.197Z,101046.13
2023-03-11T04:22:19.630Z,101057.47
2023-03-11T04:24:46.020Z,101053.25
2023-03-11T04:27:12.460Z,101051.81
2023-03-11T04:29:41.360Z,101047.75
2023-03-11T04:32:07.864Z,101051.59
2023-03-11T04:34:34.368Z,101054.38
2023-03-11T04:37:00.828Z,101051.28
2023-03-11T04:39:27.289Z,101060.94
2023-03-11T04:41:53.756Z,101063.69
2023-03-11T04:44:20.196Z,101069.06
2023-03-11T04:46:46.663Z,101067.75
2023-03-11T04:49:13.130Z,101068.84
2023-03-11T04:51:39.751Z,101072.41
2023-03-11T04:54:06.260Z,101080.22
2023-03-11T04:56:32.843Z,101078.59
2023-03-11T04:58:59.378Z,101083.16
2023-03-11T05:01:25.943Z,101082.63
2023-03-11T05:03:52.576Z,101081.16
2023-03-11T05:06:19.063Z,101083.81
2023-03-11T05:08:45.463Z,101082.38
2023-03-11T05:11:11.942Z,101090.09
2023-03-11T05:13:38.330Z,101085.19
2023-03-11T05:16:05.504Z,101077.75
2023-03-11T05:18:32.505Z,101077.75
2023-03-11T05:21:00.048Z,101073.03
2023-03-11T05:23:26.438Z,101081.69
2023-03-11T05:25:52.883Z,101088.66
2023-03-11T05:28:19.331Z,101093.03
2023-03-11T05:30:45.732Z,101098.31
2023-03-11T05:33:12.122Z,101101.03
2023-03-11T05:35:38.619Z,101098.72
2023-03-11T05:38:05.088Z,101099.78
2023-03-11T05:40:31.511Z,101105.88
2023-03-11T05:42:57.933Z,101109.50
2023-03-11T05:45:24.896Z,101112.16
2023-03-11T05:47:54.346Z,101108.88
2023-03-11T05:50:20.859Z,101112.31
2023-03-11T05:52:47.310Z,101110.69
2023-03-11T05:55:13.710Z,101116.69
2023-03-11T05:57:40.267Z,101112.69
2023-03-11T06:00:12.109Z,101118.78
2023-03-11T06:02:40.470Z,101122.94
2023-03-11T06:05:08.690Z,101129.13
2023-03-11T06:07:36.038Z,101126.78
2023-03-11T06:10:04.200Z,101135.13
2023-03-11T06:12:30.634Z,101136.69
2023-03-11T06:14:57.019Z,101148.13
2023-03-11T06:17:23.471Z,101135.22
2023-03-11T06:19:49.883Z,101148.84
2023-03-11T06:22:16.455Z,101144.38
2023-03-11T06:24:42.866Z,101149.09
2023-03-11T06:27:11.259Z,101145.50
2023-03-11T06:29:37.748Z,101145.09
2023-03-11T06:32:04.560Z,101150.69
2023-03-11T06:34:30.970Z,101154.50
2023-03-11T06:36:59.382Z,101154.94
2023-03-11T06:39:25.811Z,101156.91
2023-03-11T06:41:52.267Z,101154.75
2023-03-11T06:44:18.756Z,101154.25
2023-03-11T06:46:45.417Z,101153.69
2023-03-11T06:49:11.831Z,101155.78
2023-03-11T06:51:38.294Z,101155.41
2023-03-11T06:54:04.902Z,101150.31
2023-03-11T06:56:31.322Z,101149.53
2023-03-11T06:58:57.709Z,101152.44
2023-03-11T07:01:25.963Z,101154.69
2023-03-11T07:03:52.688Z,101156.03
2023-03-11T07:06:25.321Z,101154.03
2023-03-11T07:08:52.834Z,101168.88
2023-03-11T07:11:22.189Z,101174.91
2023-03-11T07:13:48.654Z,101173.28
2023-03-11T07:16:18.552Z,101176.19
2023-03-11T07:18:47.146Z,101171.56
2023-03-11T07:21:16.540Z,101175.13
2023-03-11T07:23:43.494Z,101179.19
2023-03-11T07:26:11.890Z,101179.81
2023-03-11T07:28:38.955Z,101179.84
2023-03-11T07:31:14.667Z,101193.06
2023-03-11T07:33:41.251Z,101192.81
2023-03-11T07:36:15.289Z,101198.91
2023-03-11T07:38:42.441Z,101199.84
2023-03-11T07:41:11.278Z,101202.03
2023-03-11T07:43:38.924Z,101206.06
2023-03-11T07:46:11.395Z,101195.22
2023-03-11T07:48:39.569Z,101197.66
2023-03-11T07:51:12.360Z,101188.13
2023-03-11T07:53:40.645Z,101198.09
2023-03-11T07:56:09.548Z,101204.84
2023-03-11T07:58:36.322Z,101211.19
2023-03-11T08:01:07.659Z,101206.34
2023-03-11T08:03:35.051Z,101205.50
2023-03-11T08:06:02.124Z,101215.53
2023-03-11T08:08:28.909Z,101224.63
2023-03-11T08:10:55.551Z,101235.81
2023-03-11T08:13:21.976Z,101237.94
2023-03-11T08:15:48.430Z,101239.94
2023-03-11T08:18:14.970Z,101240.66
2023-03-11T08:20:41.483Z,101240.56
2023-03-11T08:23:07.900Z,101239.00
2023-03-11T08:25:38.332Z,101247.97
2023-03-11T08:28:05.052Z,101250.41
2023-03-11T08:30:31.709Z,101252.59
2023-03-11T08:32:58.148Z,101261.00
2023-03-11T08:35:25.966Z,101255.31
2023-03-11T08:37:52.871Z,101255.31
2023-03-11T08:40:19.505Z,101255.59
2023-03-11T08:42:45.897Z,101256.69
2023-03-11T08:45:12.335Z,101253.13
2023-03-11T08:47:39.481Z,101260.72
2023-03-11T08:50:09.991Z,101253.66
2023-03-11T08:52:36.461Z,101255.84
2023-03-11T08:55:04.944Z,101256.78
2023-03-11T08:57:32.285Z,101262.34
2023-03-11T08:59:58.721Z,101257.34
2023-03-11T09:02:25.845Z,101273.06
2023-03-11T09:04:52.300Z,101274.28
2023-03-11T09:07:19.438Z,101285.94
2023-03-11T09:09:45.851Z,101284.72
2023-03-11T09:12:15.164Z,101294.63
2023-03-11T09:14:42.513Z,101291.50
2023-03-11T09:17:11.995Z,101290.97
2023-03-11T09:19:38.889Z,101304.09
2023-03-11T09:22:05.772Z,101309.38
2023-03-11T09:24:36.002Z,101303.84
2023-03-11T09:27:03.360Z,101301.81
2023-03-11T09:29:30.260Z,101303.28
2023-03-11T09:31:56.745Z,101305.88
2023-03-11T09:34:23.627Z,101302.34
2023-03-11T09:36:50.113Z,101309.81
2023-03-11T09:39:16.619Z,101305.91
2023-03-11T09:41:58.344Z,101294.34
2023-03-11T09:44:36.472Z,101300.47
2023-03-11T09:47:13.317Z,101291.91
2023-03-11T09:50:06.434Z,101296.38
2023-03-11T09:52:36.778Z,101296.09
2023-03-11T09:55:06.207Z,101298.78
2023-03-11T09:57:36.954Z,101304.63
2023-03-11T10:00:06.046Z,101304.75
2023-03-11T10:02:36.376Z,101299.56
2023-03-11T10:05:13.909Z,101303.00
2023-03-11T10:07:41.793Z,101301.22
2023-03-11T10:10:13.926Z,101309.75
2023-03-11T10:12:52.178Z,101294.25
2023-03-11T10:15:48.332Z,101297.78
2023-03-11T10:18:47.705Z,101307.00
2023-03-11T10:21:29.111Z,101307.28
2023-03-11T10:24:14.277Z,101303.75
2023-03-11T10:26:49.959Z,101302.38
2023-03-11T10:29:22.394Z,101305.44
2023-03-11T10:32:05.404Z,101310.91
2023-03-11T10:34:41.791Z,101301.88
2023-03-11T10:37:20.738Z,101308.28
2023-03-11T10:39:51.035Z,101305.06
2023-03-11T10:42:23.319Z,101303.91
2023-03-11T10:44:51.652Z,101301.56
2023-03-11T10:47:21.525Z,101309.75
2023-03-11T10:49:47.916Z,101307.75
2023-03-11T10:52:14.555Z,101306.84
2023-03-11T10:54:46.245Z,101298.59
2023-03-11T10:57:23.678Z,101298.97
2023-03-11T10:59:53.241Z,101302.25
2023-03-11T11:02:32.567Z,101301.97
2023-03-11T11:05:30.284Z,101304.34
2023-03-11T11:08:15.772Z,101309.38
2023-03-11T11:11:00.180Z,101310.41
2023-03-11T11:13:32.449Z,101313.50
2023-03-11T11:16:17.086Z,101316.63
2023-03-11T11:18:49.177Z,101324.66
2023-03-11T11:21:38.208Z,101310.19
2023-03-11T11:24:14.567Z,101317.06
2023-03-11T11:26:41.163Z,101310.63
2023-03-11T11:29:10.558Z,101312.59
2023-03-11T11:31:43.697Z,101315.25
2023-03-11T11:34:31.770Z,101320.56
2023-03-11T11:37:04.400Z,101316.69
2023-03-11T11:39:45.315Z,101319.56
2023-03-11T11:42:14.744Z,101312.84
2023-03-11T11:44:43.694Z,101312.03
2023-03-11T11:47:21.500Z,101308.94
2023-03-11T11:49:56.961Z,101308.28
2023-03-11T11:52:28.332Z,101315.34
2023-03-11T11:55:06.913Z,101311.97
2023-03-11T11:57:33.744Z,101318.00
2023-03-11T12:00:03.068Z,101317.91
2023-03-11T12:03:13.505Z,101313.13
2023-03-11T12:05:51.638Z,101319.75
2023-03-11T12:08:27.022Z,101317.50
2023-03-11T12:10:56.632Z,101316.84
2023-03-11T12:13:50.753Z,101312.84
2023-03-11T12:16:23.948Z,101315.28
2023-03-11T12:18:56.136Z,101314.00
2023-03-11T12:21:45.193Z,101309.72
2023-03-11T12:24:40.312Z,101294.25
2023-03-11T12:27:18.800Z,101299.91
2023-03-11T12:29:51.775Z,101299.09
2023-03-11T12:32:37.253Z,101292.69
2023-03-11T12:35:20.053Z,101294.00
2023-03-11T12:37:55.382Z,101284.63
2023-03-11T12:40:59.724Z,101293.72
2023-03-11T12:43:33.760Z,101291.13
2023-03-11T12:46:02.021Z,101295.84
2023-03-11T12:49:07.302Z,101297.91
2023-03-11T12:51:34.168Z,101291.50
2023-03-11T12:54:22.508Z,101296.00
2023-03-11T12:57:18.330Z,101294.13
2023-03-11T12:59:47.968Z,101284.81
2023-03-11T13:02:59.348Z,101297.75
2023-03-11T13:06:03.583Z,101296.16
2023-03-11T13:08:49.580Z,101296.47
2023-03-11T13:11:34.321Z,101295.69
2023-03-11T13:14:17.961Z,101289.09
2023-03-11T13:16:48.055Z,101286.13
2023-03-11T13:19:26.777Z,101290.28
2023-03-11T13:21:59.590Z,101291.50
2023-03-11T13:24:26.124Z,101284.28
2023-03-11T13:26:58.529Z,101292.19
2023-03-11T13:29:37.050Z,101290.09
2023-03-11T13:32:36.153Z,101280.97
2023-03-11T13:35:24.217Z,101280.66
2023-03-11T13:38:09.234Z,101276.56
2023-03-11T13:40:41.080Z,101281.38
2023-03-11T13:43:23.500Z,101292.38
2023-03-11T13:46:17.029Z,101282.66
2023-03-11T13:48:48.013Z,101283.09
2023-03-11T13:51:22.073Z,101283.38
2023-03-11T13:53:59.470Z,101287.53
2023-03-11T13:56:29.112Z,101284.19
2023-03-11T13:59:16.839Z,101286.91
2023-03-11T14:01:55.933Z,101292.28
2023-03-11T14:04:29.671Z,101290.78
2023-03-11T14:06:56.234Z,101299.53
2023-03-11T14:09:26.891Z,101300.69
2023-03-11T14:11:56.972Z,101297.63
2023-03-11T14:14:42.630Z,101302.28
2023-03-11T14:17:15.491Z,101302.22
2023-03-11T14:19:42.657Z,101305.41
2023-03-11T14:22:09.918Z,101306.34
2023-03-11T14:24:38.018Z,101311.69
2023-03-11T14:27:09.456Z,101309.19
2023-03-11T14:29:39.057Z,101313.19
2023-03-11T14:32:28.926Z,101313.56
2023-03-11T14:34:57.150Z,101316.75
2023-03-11T14:37:39.121Z,101316.75
2023-03-11T14:40:33.832Z,101318.53
2023-03-11T14:43:03.597Z,101319.38
2023-03-11T14:45:33.409Z,101319.69
2023-03-11T14:48:09.348Z,101327.38
2023-03-11T14:50:36.269Z,101326.78
2023-03-11T14:53:13.856Z,101314.06
2023-03-11T14:55:50.759Z,101313.81
2023-03-11T14:58:34.583Z,101318.00
2023-03-11T15:01:07.381Z,101318.63
2023-03-11T15:03:38.302Z,101312.84
2023-03-11T15:06:09.693Z,101324.88
2023-03-11T15:08:52.558Z,101323.59
2023-03-11T15:11:25.371Z,101330.72
2023-03-11T15:13:53.221Z,101331.63
2023-03-11T15:16:29.128Z,101323.97
2023-03-11T15:18:56.286Z,101323.16
2023-03-11T15:21:24.846Z,101330.25
2023-03-11T15:24:06.484Z,101325.94
2023-03-11T15:26:35.813Z,101327.13
2023-03-11T15:29:12.737Z,101317.88
2023-03-11T15:31:40.531Z,101316.00
2023-03-11T15:34:16.193Z,101319.28
2023-03-11T15:36:48.766Z,101314.31
2023-03-11T15:39:22.342Z,101314.25
2023-03-11T15:42:24.531Z,101314.19
2023-03-11T15:45:20.663Z,101318.00
2023-03-11T15:47:48.821Z,101308.34
2023-03-11T15:50:24.444Z,101312.69
2023-03-11T15:52:53.358Z,101310.78
2023-03-11T15:55:20.031Z,101308.72
2023-03-11T15:57:48.817Z,101305.06
2023-03-11T16:00:22.058Z,101309.47
2023-03-11T16:02:50.573Z,101308.84
2023-03-11T16:05:19.584Z,101311.28
2023-03-11T16:07:46.932Z,101303.50
2023-03-11T16:10:15.492Z,101304.16
2023-03-11T16:12:45.513Z,101304.47
2023-03-11T16:15:26.494Z,101304.25
2023-03-11T16:17:53.350Z,101312.75
2023-03-11T16:20:21.404Z,101300.44
2023-03-11T16:22:50.272Z,101314.41
2023-03-11T16:25:38.742Z,101313.28
2023-03-11T16:28:05.912Z,101313.63
2023-03-11T16:30:34.766Z,101317.69
2023-03-11T16:33:04.364Z,101312.06
2023-03-11T16:35:31.504Z,101305.59
2023-03-11T16:37:58.038Z,101311.09
2023-03-11T16:40:27.339Z,101308.97
2023-03-11T16:43:04.495Z,101310.28
2023-03-11T16:45:31.205Z,101311.91
2023-03-11T16:47:57.926Z,101308.38
2023-03-11T16:50:24.531Z,101317.22
2023-03-11T16:52:52.307Z,101324.84
2023-03-11T16:55:19.504Z,101324.97
2023-03-11T16:57:46.383Z,101324.31
2023-03-11T17:00:13.786Z,101329.88
2023-03-11T17:02:40.525Z,101330.00
2023-03-11T17:05:11.080Z,101323.47
2023-03-11T17:07:39.554Z,101324.44
2023-03-11T17:10:08.136Z,101334.72
2023-03-11T17:12:35.991Z,101334.00
2023-03-11T17:15:03.712Z,101329.66
2023-03-11T17:17:31.556Z,101326.22
2023-03-11T17:19:58.116Z,101325.13
2023-03-11T17:22:24.538Z,101322.78
2023-03-11T17:24:51.018Z,101320.41
2023-03-11T17:27:17.550Z,101332.53
2023-03-11T17:29:44.102Z,101329.81
2023-03-11T17:32:16.822Z,101336.63
2023-03-11T17:34:43.700Z,101330.75
2023-03-11T17:37:10.186Z,101341.88
2023-03-11T17:39:36.768Z,101336.00
2023-03-11T17:42:03.211Z,101332.19
2023-03-11T17:44:37.855Z,101343.06
2023-03-11T17:47:11.296Z,101355.72
2023-03-11T17:49:37.964Z,101350.47
2023-03-11T17:52:04.622Z,101346.75
2023-03-11T17:54:31.061Z,101349.13
2023-03-11T17:56:57.615Z,101347.97
2023-03-11T17:59:24.160Z,101352.66
2023-03-11T18:01:50.654Z,101358.38
2023-03-11T18:04:17.090Z,101359.78
2023-03-11T18:06:43.529Z,101368.78
2023-03-11T18:09:10.027Z,101365.19
2023-03-11T18:11:36.574Z,101366.69
2023-03-11T18:14:03.237Z,101371.34
2023-03-11T18:16:31.825Z,101375.44
2023-03-11T18:18:58.404Z,101375.66
2023-03-11T18:21:27.984Z,101379.72
2023-03-11T18:23:59.571Z,101372.75
2023-03-11T18:26:31.516Z,101383.44
2023-03-11T18:28:59.860Z,101382.97
2023-03-11T18:31:29.790Z,101385.53
2023-03-11T18:34:02.243Z,101386.56
2023-03-11T18:36:37.584Z,101385.88
2023-03-11T18:39:04.906Z,101392.03
2023-03-11T18:41:33.533Z,101387.72
2023-03-11T18:44:00.482Z,101380.97
2023-03-11T18:46:31.508Z,101388.66
2023-03-11T18:48:59.433Z,101386.22
2023-03-11T18:51:27.018Z,101392.13
2023-03-11T18:53:53.599Z,101379.31
2023-03-11T18:56:20.211Z,101394.81
2023-03-11T18:58:46.899Z,101392.13
2023-03-11T19:01:15.925Z,101390.41
2023-03-11T19:03:44.323Z,101392.97
2023-03-11T19:06:12.778Z,101391.13
2023-03-11T19:08:40.559Z,101384.34
2023-03-11T19:11:09.014Z,101377.59
2023-03-11T19:13:46.327Z,101382.94
2023-03-11T19:16:15.747Z,101386.75
2023-03-11T19:18:42.179Z,101386.97
2023-03-11T19:21:11.816Z,101390.50
2023-03-11T19:23:38.419Z,101376.16
2023-03-11T19:26:05.180Z,101383.94
2023-03-11T19:28:31.602Z,101374.84
2023-03-11T19:30:59.402Z,101375.09
2023-03-11T19:33:26.427Z,101371.91
2023-03-11T19:35:55.536Z,101375.97
2023-03-11T19:38:23.205Z,101376.63
2023-03-11T19:41:03.833Z,101380.56
2023-03-11T19:43:30.654Z,101383.66
2023-03-11T19:45:57.506Z,101383.28
2023-03-11T19:48:24.059Z,101383.00
2023-03-11T19:50:51.295Z,101385.19
2023-03-11T19:53:19.053Z,101379.56
2023-03-11T19:55:47.620Z,101374.88
2023-03-11T19:58:14.557Z,101381.13
2023-03-11T20:00:43.293Z,101380.63
2023-03-11T20:03:11.139Z,101385.47
2023-03-11T20:05:40.041Z,101381.56
2023-03-11T20:08:07.497Z,101378.50
2023-03-11T20:10:38.009Z,101379.06
2023-03-11T20:13:04.556Z,101380.09
2023-03-11T20:15:31.138Z,101380.19
2023-03-11T20:17:57.740Z,101382.25
2023-03-11T20:20:24.209Z,101386.75
2023-03-11T20:22:50.749Z,101384.19
2023-03-11T20:25:17.252Z,101381.00
2023-03-11T20:27:43.948Z,101379.78
2023-03-11T20:30:11.335Z,101394.72
2023-03-11T20:32:37.846Z,101384.91
2023-03-11T20:35:04.949Z,101391.38
2023-03-11T20:37:31.794Z,101391.88
2023-03-11T20:39:58.384Z,101388.78
2023-03-11T20:42:24.895Z,101391.13
2023-03-11T20:44:53.322Z,101390.91
2023-03-11T20:47:20.820Z,101387.72
2023-03-11T20:49:47.383Z,101392.22
2023-03-11T20:52:14.122Z,101387.31
2023-03-11T20:54:40.823Z,101389.16
2023-03-11T20:57:09.535Z,101386.78
2023-03-11T20:59:36.165Z,101397.09
2023-03-11T21:02:03.411Z,101388.81
2023-03-11T21:04:30.208Z,101393.84
2023-03-11T21:06:57.540Z,101385.25
2023-03-11T21:09:24.486Z,101382.69
2023-03-11T21:11:50.955Z,101387.78
2023-03-11T21:14:18.333Z,101382.69
2023-03-11T21:16:45.632Z,101389.03
2023-03-11T21:19:13.541Z,101380.66
2023-03-11T21:21:40.295Z,101381.56
2023-03-11T21:24:07.410Z,101382.34
2023-03-11T21:26:34.400Z,101389.22
2023-03-11T21:29:00.925Z,101377.34
2023-03-11T21:31:29.471Z,101385.84
2023-03-11T21:33:58.510Z,101380.84
2023-03-11T21:36:28.852Z,101382.56
2023-03-11T21:38:58.019Z,101375.63
2023-03-11T21:41:26.815Z,101370.72
2023-03-11T21:43:54.787Z,101378.56
2023-03-11T21:46:24.788Z,101371.72
2023-03-11T21:48:51.646Z,101373.47
2023-03-11T21:51:19.165Z,101376.94
2023-03-11T21:53:46.279Z,101368.38
2023-03-11T21:56:13.539Z,101367.66
2023-03-11T21:58:41.018Z,101368.56
2023-03-11T22:01:08.532Z,101382.22
2023-03-11T22:03:36.461Z,101365.47
2023-03-11T22:06:06.699Z,101366.28
2023-03-11T22:08:33.961Z,101372.53
2023-03-11T22:11:00.828Z,101369.41
2023-03-11T22:13:27.861Z,101372.06
2023-03-11T22:15:57.139Z,101374.75
2023-03-11T22:18:23.699Z,101375.03
2023-03-11T22:20:50.226Z,101370.81
2023-03-11T22:23:16.653Z,101371.81
2023-03-11T22:25:43.105Z,101368.75
2023-03-11T22:28:12.753Z,101364.69
2023-03-11T22:30:39.277Z,101356.38
2023-03-11T22:33:06.391Z,101364.88
2023-03-11T22:35:33.307Z,101364.03
2023-03-11T22:37:59.809Z,101358.91
2023-03-11T22:40:27.245Z,101367.59
2023-03-11T22:42:53.710Z,101356.50
2023-03-11T22:45:22.267Z,101358.41
2023-03-11T22:47:50.272Z,101355.84
2023-03-11T22:50:18.270Z,101349.13
2023-03-11T22:52:45.123Z,101353.88
2023-03-11T22:55:11.599Z,101346.78
2023-03-11T22:57:38.937Z,101351.63
2023-03-11T23:00:17.391Z,101355.28
2023-03-11T23:02:48.456Z,101347.72
2023-03-11T23:05:16.054Z,101358.94
2023-03-11T23:07:42.833Z,101358.09
2023-03-11T23:10:11.596Z,101354.47
2023-03-11T23:12:38.878Z,101341.63
2023-03-11T23:15:09.663Z,101343.28
2023-03-11T23:17:36.131Z,101336.44
2023-03-11T23:20:03.359Z,101334.59
2023-03-11T23:22:29.814Z,101337.88
2023-03-11T23:24:56.249Z,101338.53
2023-03-11T23:27:22.766Z,101341.69
2023-03-11T23:29:50.513Z,101331.31
2023-03-11T23:32:17.068Z,101331.22
2023-03-11T23:34:43.786Z,101333.56
2023-03-11T23:37:10.261Z,101333.56
2023-03-11T23:39:36.845Z,101332.53
2023-03-11T23:42:11.790Z,101334.09
2023-03-11T23:44:49.002Z,101334.00
2023-03-11T23:47:15.494Z,101333.91
2023-03-11T23:49:43.076Z,101331.66
2023-03-11T23:52:09.525Z,101317.25
2023-03-11T23:54:35.991Z,101308.88
2023-03-11T23:57:02.501Z,101311.22
2023-03-11T23:59:28.928Z,101311.75
